Decoded Metar for KAEL (ALBERT LEA in MN, USA) (IATA:AEL) | Meteo·Mobile Aviation Weather
aviador You're here:

KAEL Decoded Metar

ALBERT LEA in MN, USA
Report Time2018-12-15 17:36:00
UTC Time2018-12-15 17:54:27
Flight Rules vfr VFR
Wind180° at 06 kt
W.Decomp.*RWY 17: 5.9 kt HW 0.9 kt RCW
RWY 23: 3.8 kt HW 4.7 kt LCW
W.Rank180° ranks 3
Current wind is below 180° avg. (8.3)
Visibility9999 m
Phenomena:N/A
Clouds:N/A
Expected CloudBase > 2,400 ft AGL from Temp-Dew spread
CeilingNone
Temp03°C (ISA -10)
Dew Point-3°C (65% RH)
AAT-1.5°C
QNH1020 hPa
Density Alt-59 ft
Elevation1,257 ft
Report Wrong Elevation
Raw Report
KAEL 151736Z AUTO 18006KT 10SM CLR 03/M03 A3013 RMK AO2=

Extra information for KAEL:More info

Metar Taf Metar & Taf Last 4 Metars F.Rules Stats Wind Profile Meteogram Temp Stats Airport Information Weather charts Add Link Nearby VenuesMetar ALERT Operation Metar Decoded Social comments

AIRNAV info for KAEL